Time;durP1;ratioP1;P1;durP2;ratioP2;P2;SDS_P1;SDS_P2;PMS_P1;PMS_P2;Temp;Humidity;BMP_temperature;BMP_pressure;BME280_temperature;BME280_humidity;BME280_pressure;Samples;Min_cycle;Max_cycle;Signal;HPM_P1;HPM_P2
2024/05/06 00:00:09;;;;;;;3.83;3.63;;;19.60;99.90;;;;;;7508772;26;20233;-78
2024/05/06 00:03:32;;;;;;;4.28;3.92;;;19.40;99.90;;;;;;7520231;26;20332;-76
2024/05/06 00:06:58;;;;;;;4.13;3.92;;;19.30;99.90;;;;;;7523075;26;20272;-77
2024/05/06 00:10:21;;;;;;;3.70;3.40;;;19.20;99.90;;;;;;7523043;26;20232;-77
2024/05/06 00:13:44;;;;;;;3.85;3.55;;;19.20;99.90;;;;;;7509887;26;20287;-76
2024/05/06 00:17:07;;;;;;;2.92;2.72;;;19.20;99.90;;;;;;7509197;26;20233;-78
2024/05/06 00:20:31;;;;;;;4.45;3.33;;;19.20;99.90;;;;;;7510648;26;20244;-76
2024/05/06 00:23:56;;;;;;;3.92;3.20;;;19.30;99.90;;;;;;7499896;26;20234;-79
2024/05/06 00:27:19;;;;;;;3.33;3.13;;;19.40;99.90;;;;;;7495807;26;20272;-78
2024/05/06 00:30:42;;;;;;;4.20;3.90;;;19.40;99.90;;;;;;7508516;26;20329;-76
2024/05/06 00:34:05;;;;;;;4.85;4.38;;;19.40;99.90;;;;;;7499809;26;20241;-79
2024/05/06 00:37:28;;;;;;;4.38;4.05;;;19.30;99.90;;;;;;7494090;26;20279;-77
2024/05/06 00:40:54;;;;;;;4.30;3.97;;;19.30;99.90;;;;;;7505612;26;20672;-78
2024/05/06 00:44:17;;;;;;;5.63;5.05;;;19.20;99.90;;;;;;7505341;26;20781;-76
2024/05/06 00:47:40;;;;;;;4.10;3.80;;;19.20;99.90;;;;;;7512193;26;20270;-77
2024/05/06 00:51:04;;;;;;;4.35;3.95;;;19.20;99.90;;;;;;7512594;26;20793;-77
2024/05/06 00:54:27;;;;;;;4.25;3.97;;;19.20;99.90;;;;;;7507065;26;20271;-77
2024/05/06 00:57:56;;;;;;;4.93;4.53;;;19.20;99.90;;;;;;7503435;26;20705;-78
2024/05/06 01:01:19;;;;;;;4.38;4.07;;;19.30;99.90;;;;;;7510214;26;20235;-78
2024/05/06 01:04:42;;;;;;;5.10;4.78;;;19.30;99.90;;;;;;7500461;26;20233;-77
2024/05/06 01:08:06;;;;;;;4.93;4.60;;;19.10;99.90;;;;;;7504053;26;20748;-79
2024/05/06 01:11:29;;;;;;;5.03;4.72;;;18.90;99.90;;;;;;7493456;26;20669;-78
2024/05/06 01:14:55;;;;;;;4.35;4.07;;;18.80;99.90;;;;;;7504182;26;20336;-78
2024/05/06 01:18:18;;;;;;;5.35;4.95;;;18.70;99.90;;;;;;7522591;26;20270;-78
2024/05/06 01:21:42;;;;;;;5.25;4.70;;;18.60;99.90;;;;;;7513204;26;20263;-77
2024/05/06 01:25:08;;;;;;;4.72;4.43;;;18.60;99.90;;;;;;7510762;26;20228;-78
2024/05/06 01:28:31;;;;;;;4.40;4.10;;;18.60;99.90;;;;;;7519942;26;20272;-78
2024/05/06 01:31:54;;;;;;;5.13;4.72;;;18.60;99.90;;;;;;7507769;26;20232;-77
2024/05/06 01:35:17;;;;;;;4.60;4.30;;;18.60;99.90;;;;;;7524411;26;20731;-77
2024/05/06 01:38:40;;;;;;;5.32;4.95;;;18.50;99.90;;;;;;7513152;26;20922;-78
2024/05/06 01:42:06;;;;;;;5.50;5.10;;;18.50;99.90;;;;;;7507080;26;20340;-77
2024/05/06 01:45:29;;;;;;;4.75;4.35;;;18.50;99.90;;;;;;7515572;26;20769;-77
2024/05/06 01:48:52;;;;;;;4.82;4.38;;;18.20;99.90;;;;;;7503244;26;20293;-77
2024/05/06 01:52:15;;;;;;;4.55;4.20;;;18.20;99.90;;;;;;7516016;26;20228;-76
2024/05/06 01:55:38;;;;;;;4.53;4.15;;;18.20;99.90;;;;;;7514895;26;20233;-77
2024/05/06 01:59:04;;;;;;;4.47;4.13;;;18.30;99.90;;;;;;7512343;26;20229;-77
2024/05/06 02:02:27;;;;;;;4.55;4.15;;;18.30;99.90;;;;;;7519446;26;20276;-77
2024/05/06 02:05:50;;;;;;;4.45;4.05;;;18.40;99.90;;;;;;7509956;26;20232;-76
2024/05/06 02:09:13;;;;;;;5.10;4.70;;;18.40;99.90;;;;;;7508003;26;20271;-78
2024/05/06 02:12:36;;;;;;;4.32;3.92;;;18.50;99.90;;;;;;7514142;26;20283;-77
2024/05/06 02:16:01;;;;;;;4.30;4.00;;;18.40;99.90;;;;;;7510283;26;20759;-77
2024/05/06 02:19:24;;;;;;;4.22;3.80;;;18.30;99.90;;;;;;7500683;26;20674;-77
2024/05/06 02:22:47;;;;;;;4.10;3.90;;;18.10;99.90;;;;;;7522975;26;20279;-77
2024/05/06 02:26:10;;;;;;;4.03;3.75;;;18.00;99.90;;;;;;7508860;26;20232;-77
2024/05/06 02:29:33;;;;;;;3.92;3.53;;;18.00;99.90;;;;;;7515538;26;20814;-77
2024/05/06 02:32:59;;;;;;;3.63;3.42;;;17.90;99.90;;;;;;7510147;26;20272;-76
2024/05/06 02:36:22;;;;;;;3.72;3.42;;;17.80;99.90;;;;;;7517991;26;20346;-77
2024/05/06 02:39:45;;;;;;;3.95;3.67;;;17.80;99.90;;;;;;7510998;26;20284;-77
2024/05/06 02:43:08;;;;;;;3.63;3.38;;;17.60;99.90;;;;;;7513257;26;20774;-78
2024/05/06 02:46:31;;;;;;;4.05;3.85;;;17.60;99.90;;;;;;7523932;26;20236;-78
2024/05/06 02:49:57;;;;;;;3.47;3.17;;;17.70;99.90;;;;;;7517800;26;20229;-77
2024/05/06 02:53:20;;;;;;;3.85;3.65;;;17.70;99.90;;;;;;7507795;26;20334;-76
2024/05/06 02:56:43;;;;;;;4.03;3.55;;;17.80;99.90;;;;;;7506591;26;20337;-78
2024/05/06 03:00:07;;;;;;;4.30;4.00;;;17.70;99.90;;;;;;7524200;26;20568;-77
2024/05/06 03:03:30;;;;;;;4.70;4.28;;;17.60;99.90;;;;;;7526588;26;20230;-76
2024/05/06 03:06:56;;;;;;;4.10;3.90;;;17.60;99.90;;;;;;7519192;26;20233;-77
2024/05/06 03:10:19;;;;;;;4.25;3.95;;;17.60;99.90;;;;;;7509903;26;20233;-76
2024/05/06 03:13:42;;;;;;;4.40;4.10;;;17.50;99.90;;;;;;7520175;26;20572;-75
2024/05/06 03:17:05;;;;;;;4.90;4.47;;;17.50;99.90;;;;;;7525112;26;20228;-78
2024/05/06 03:20:28;;;;;;;4.43;4.00;;;17.60;99.90;;;;;;7506375;26;20613;-76
2024/05/06 03:23:53;;;;;;;5.18;4.88;;;17.60;99.90;;;;;;7510780;26;20225;-78
2024/05/06 03:27:16;;;;;;;4.50;4.18;;;17.70;99.90;;;;;;7506032;26;21024;-77
2024/05/06 03:30:39;;;;;;;5.95;5.45;;;17.70;99.90;;;;;;7516129;26;20237;-75
2024/05/06 03:34:02;;;;;;;5.53;5.03;;;17.90;99.90;;;;;;7518991;26;20679;-77
2024/05/06 03:37:25;;;;;;;6.32;5.82;;;17.90;99.90;;;;;;7504530;26;20230;-76
2024/05/06 03:40:50;;;;;;;5.13;4.40;;;17.80;99.90;;;;;;7525320;26;20232;-77
2024/05/06 03:44:14;;;;;;;4.70;4.45;;;17.90;99.90;;;;;;7505556;26;20280;-76
2024/05/06 03:47:36;;;;;;;4.90;4.55;;;17.90;99.90;;;;;;7521945;26;20324;-75
2024/05/06 03:50:59;;;;;;;5.00;4.50;;;17.80;99.90;;;;;;7507019;26;20228;-77
2024/05/06 03:54:23;;;;;;;5.50;5.00;;;17.70;99.90;;;;;;7514648;26;20267;-76
2024/05/06 03:57:49;;;;;;;6.65;4.90;;;17.60;99.90;;;;;;7512883;26;20275;-78
2024/05/06 04:01:16;;;;;;;5.70;5.30;;;17.60;99.90;;;;;;7510924;26;20564;-76
2024/05/06 04:04:39;;;;;;;4.82;4.53;;;17.60;99.90;;;;;;7514647;26;20275;-76
2024/05/06 04:08:02;;;;;;;6.03;5.25;;;17.60;99.90;;;;;;7510064;26;20268;-76
2024/05/06 04:11:26;;;;;;;5.20;4.70;;;17.60;99.90;;;;;;7499501;26;20275;-77
2024/05/06 04:14:52;;;;;;;5.93;5.35;;;17.60;99.90;;;;;;7496527;26;20237;-77
2024/05/06 04:18:15;;;;;;;5.53;5.10;;;17.60;99.90;;;;;;7498286;26;20245;-76
2024/05/06 04:21:38;;;;;;;6.40;6.00;;;17.60;99.90;;;;;;7506064;26;20777;-76
2024/05/06 04:28:40;;;;;;;7.65;6.95;;;17.70;99.90;;;;;;7520493;26;20583;-76
2024/05/06 04:32:06;;;;;;;7.13;6.63;;;17.90;99.90;;;;;;7517092;26;20232;-77
2024/05/06 04:35:29;;;;;;;5.90;5.43;;;18.20;99.90;;;;;;7514262;26;20232;-77
2024/05/06 04:38:52;;;;;;;6.70;6.20;;;18.50;99.90;;;;;;7492220;26;20229;-77
2024/05/06 04:42:15;;;;;;;5.97;5.57;;;18.70;99.90;;;;;;7514979;26;20272;-77
2024/05/06 04:45:38;;;;;;;6.10;5.72;;;18.70;99.90;;;;;;7510824;26;20233;-78
2024/05/06 04:49:04;;;;;;;8.55;5.32;;;18.80;99.90;;;;;;7506033;26;20775;-78
2024/05/06 04:52:27;;;;;;;6.10;5.70;;;19.00;99.90;;;;;;7520752;26;20790;-77
2024/05/06 04:55:50;;;;;;;7.15;6.65;;;19.00;99.90;;;;;;7516872;26;20313;-78
2024/05/06 04:59:12;;;;;;;6.55;6.15;;;19.00;99.90;;;;;;7505736;26;20701;-77
2024/05/06 05:02:35;;;;;;;5.95;5.53;;;19.10;99.90;;;;;;7512247;26;20229;-77
2024/05/06 05:06:01;;;;;;;6.80;5.93;;;19.30;99.90;;;;;;7493530;26;20276;-77
2024/05/06 05:09:24;;;;;;;6.53;6.13;;;19.50;99.90;;;;;;7506260;26;20337;-78
2024/05/06 05:12:47;;;;;;;7.15;6.60;;;19.50;99.90;;;;;;7519466;26;20318;-77
2024/05/06 05:16:10;;;;;;;6.57;6.18;;;19.50;99.90;;;;;;7519534;26;20232;-78
2024/05/06 05:19:33;;;;;;;7.45;6.80;;;19.50;99.90;;;;;;7495233;26;20922;-78
2024/05/06 05:22:59;;;;;;;6.47;5.90;;;19.60;99.90;;;;;;7516055;26;20584;-76
2024/05/06 05:26:23;;;;;;;6.70;6.20;;;19.80;99.90;;;;;;7515062;26;20267;-79
2024/05/06 05:29:47;;;;;;;6.97;6.53;;;19.90;99.90;;;;;;7513480;26;20233;-77
2024/05/06 05:33:10;;;;;;;7.78;6.85;;;19.80;99.90;;;;;;7520371;26;20239;-77
2024/05/06 05:36:33;;;;;;;7.20;6.50;;;19.80;99.90;;;;;;7519709;26;20232;-77
2024/05/06 05:39:58;;;;;;;11.38;7.82;;;20.00;99.90;;;;;;7517700;26;20232;-76
2024/05/06 05:43:21;;;;;;;7.45;6.68;;;19.90;99.90;;;;;;7509243;26;20765;-78
2024/05/06 05:46:44;;;;;;;7.82;7.25;;;19.90;99.90;;;;;;7511586;26;20225;-78
2024/05/06 05:50:08;;;;;;;7.90;7.20;;;19.90;99.90;;;;;;7512304;26;20272;-77
2024/05/06 05:53:32;;;;;;;10.88;8.10;;;20.10;99.90;;;;;;7511585;26;20342;-77
2024/05/06 05:56:57;;;;;;;8.25;7.53;;;20.10;99.90;;;;;;7515305;26;20236;-78
2024/05/06 06:00:20;;;;;;;7.65;7.05;;;20.00;99.90;;;;;;7520114;26;20232;-79
2024/05/06 06:03:45;;;;;;;9.70;7.95;;;19.90;99.90;;;;;;7509547;26;20240;-78
2024/05/06 06:07:08;;;;;;;17.48;15.80;;;19.80;99.90;;;;;;7505518;26;20289;-78
2024/05/06 06:10:31;;;;;;;10.48;8.23;;;19.90;99.90;;;;;;7501672;26;20358;-77
2024/05/06 06:13:56;;;;;;;9.35;8.50;;;20.00;99.90;;;;;;7518536;26;20287;-78
2024/05/06 06:17:19;;;;;;;8.93;8.10;;;19.80;99.90;;;;;;7514025;26;20659;-76
2024/05/06 06:20:42;;;;;;;9.23;8.52;;;20.10;99.90;;;;;;7512222;26;20352;-77
2024/05/06 06:24:05;;;;;;;11.93;10.77;;;20.10;99.90;;;;;;7522017;26;20276;-78
2024/05/06 06:27:28;;;;;;;9.00;8.10;;;20.20;99.90;;;;;;7521676;26;20271;-78
2024/05/06 06:30:54;;;;;;;8.25;7.55;;;20.20;99.90;;;;;;7519160;26;20240;-77
2024/05/06 06:34:17;;;;;;;8.52;7.72;;;20.30;99.90;;;;;;7506267;26;20245;-76
2024/05/06 06:37:40;;;;;;;7.90;7.20;;;20.40;99.90;;;;;;7504868;26;20236;-77
2024/05/06 06:41:03;;;;;;;7.07;6.45;;;20.60;99.90;;;;;;7505242;26;20271;-78
2024/05/06 06:44:26;;;;;;;6.75;5.97;;;20.50;99.90;;;;;;7514414;26;20225;-79
2024/05/06 06:47:51;;;;;;;4.80;4.20;;;20.80;99.90;;;;;;7519482;26;20229;-78
2024/05/06 06:51:14;;;;;;;4.57;4.10;;;21.10;99.90;;;;;;7519774;26;20305;-78
2024/05/06 06:54:37;;;;;;;5.10;4.70;;;21.40;99.90;;;;;;7518609;26;20228;-77
2024/05/06 06:58:00;;;;;;;3.80;3.45;;;21.40;99.90;;;;;;7515240;26;20276;-79
2024/05/06 07:01:23;;;;;;;3.72;3.45;;;20.90;99.90;;;;;;7528535;26;20279;-79
2024/05/06 07:04:49;;;;;;;5.43;3.38;;;21.00;99.90;;;;;;7517407;26;20249;-76
2024/05/06 07:08:14;;;;;;;3.80;3.33;;;21.30;99.90;;;;;;7525120;26;20245;-79
2024/05/06 07:11:37;;;;;;;3.08;2.85;;;21.60;99.90;;;;;;7505786;26;20241;-76
2024/05/06 07:14:59;;;;;;;6.03;3.40;;;21.80;99.90;;;;;;7517553;26;20324;-78
2024/05/06 07:18:22;;;;;;;3.75;3.53;;;21.60;99.90;;;;;;7521720;26;20232;-77
2024/05/06 07:21:48;;;;;;;4.55;4.25;;;21.80;99.90;;;;;;7524764;26;20271;-79
2024/05/06 07:25:11;;;;;;;3.88;3.50;;;22.00;99.90;;;;;;7518539;26;20232;-79
2024/05/06 07:28:33;;;;;;;5.88;4.40;;;21.70;99.90;;;;;;7505654;26;20300;-77
2024/05/06 07:31:56;;;;;;;4.38;3.97;;;22.00;99.90;;;;;;7516593;26;20267;-79
2024/05/06 07:35:19;;;;;;;6.40;4.20;;;22.50;99.90;;;;;;7520258;26;21871;-78
2024/05/06 07:38:45;;;;;;;3.50;3.13;;;22.50;99.90;;;;;;7508008;26;20365;-78
2024/05/06 07:42:08;;;;;;;4.10;3.80;;;22.50;99.90;;;;;;7524180;26;20894;-78
2024/05/06 07:45:31;;;;;;;3.63;3.42;;;22.50;99.90;;;;;;7521216;26;20232;-78
2024/05/06 07:48:54;;;;;;;2.92;2.72;;;22.70;99.90;;;;;;7498923;26;20232;-78
2024/05/06 07:52:17;;;;;;;4.68;3.85;;;22.70;99.90;;;;;;7517991;26;20768;-79
2024/05/06 07:55:43;;;;;;;4.75;4.40;;;23.30;99.90;;;;;;7525189;26;20266;-79
2024/05/06 07:59:06;;;;;;;3.22;3.00;;;23.40;99.90;;;;;;7513246;26;20232;-80
2024/05/06 08:02:29;;;;;;;3.45;3.25;;;23.90;98.90;;;;;;7514840;26;20272;-79
2024/05/06 08:05:52;;;;;;;3.63;2.65;;;24.20;98.10;;;;;;7510897;26;20260;-79
2024/05/06 08:09:15;;;;;;;2.55;2.45;;;24.30;97.10;;;;;;7523350;26;20236;-79
2024/05/06 08:12:41;;;;;;;3.15;2.85;;;26.00;95.00;;;;;;7496521;26;20228;-79
2024/05/06 08:16:04;;;;;;;3.70;3.40;;;28.80;92.10;;;;;;7517075;26;20233;-79
2024/05/06 08:19:27;;;;;;;4.20;1.77;;;28.90;87.30;;;;;;7505761;26;20266;-80
2024/05/06 08:22:50;;;;;;;4.43;2.47;;;29.00;80.90;;;;;;7517827;26;20571;-81
2024/05/06 08:26:13;;;;;;;3.13;2.83;;;29.60;81.20;;;;;;7499547;26;20233;-81
2024/05/06 08:29:38;;;;;;;2.60;2.50;;;31.40;76.50;;;;;;7528000;26;20602;-81
2024/05/06 08:33:01;;;;;;;2.25;2.15;;;32.20;70.20;;;;;;7525268;26;20322;-82
2024/05/06 08:36:24;;;;;;;4.07;2.83;;;31.20;70.90;;;;;;7525092;26;20229;-80
2024/05/06 08:39:47;;;;;;;2.65;2.20;;;30.30;70.60;;;;;;7520917;26;20264;-81
2024/05/06 08:43:11;;;;;;;1.75;1.65;;;30.50;69.50;;;;;;7493298;26;20249;-81
2024/05/06 08:46:42;;;;;;;3.33;2.10;;;29.90;68.40;;;;;;7524974;26;20830;-80
2024/05/06 08:50:06;;;;;;;2.63;2.20;;;29.40;69.10;;;;;;7517488;26;20231;-81
2024/05/06 08:53:29;;;;;;;2.47;2.28;;;29.20;70.30;;;;;;7508926;26;20279;-82
2024/05/06 08:56:53;;;;;;;2.20;2.10;;;30.20;69.30;;;;;;7526114;26;20224;-82
2024/05/06 09:00:18;;;;;;;2.65;2.03;;;31.40;67.80;;;;;;7526578;26;20362;-83
2024/05/06 09:03:43;;;;;;;2.70;2.10;;;31.50;66.70;;;;;;7498257;26;20266;-81
2024/05/06 09:07:06;;;;;;;1.88;1.73;;;31.90;66.90;;;;;;7511781;26;20709;-81
2024/05/06 09:10:30;;;;;;;1.58;1.48;;;32.10;63.90;;;;;;7525099;26;20233;-81
2024/05/06 09:13:53;;;;;;;4.35;2.60;;;31.50;62.90;;;;;;7524789;26;20786;-82
2024/05/06 09:17:20;;;;;;;1.83;1.73;;;31.60;63.90;;;;;;7523797;26;20239;-82
2024/05/06 09:20:45;;;;;;;2.42;2.13;;;33.20;61.80;;;;;;7524589;26;20231;-82
2024/05/06 09:24:09;;;;;;;7.55;2.38;;;33.80;59.70;;;;;;7505609;26;20768;-82
2024/05/06 09:27:32;;;;;;;2.08;1.48;;;34.00;59.00;;;;;;7507850;26;20233;-81
2024/05/06 09:30:55;;;;;;;1.88;1.70;;;32.80;58.60;;;;;;7524858;26;20295;-82
2024/05/06 09:34:19;;;;;;;1.80;1.70;;;32.30;59.20;;;;;;7502599;26;20228;-82
2024/05/06 09:37:47;;;;;;;1.92;1.83;;;33.50;58.00;;;;;;7515391;26;20244;-82
2024/05/06 09:41:14;;;;;;;4.05;1.67;;;32.90;57.40;;;;;;7526160;26;20579;-84
2024/05/06 09:44:39;;;;;;;1.95;1.35;;;33.90;57.30;;;;;;7525156;26;20572;-82
2024/05/06 09:48:05;;;;;;;1.50;1.40;;;34.40;55.90;;;;;;7525032;26;20787;-82
2024/05/06 09:51:30;;;;;;;1.80;1.70;;;34.00;55.60;;;;;;7524742;26;20228;-81
2024/05/06 09:54:57;;;;;;;1.77;1.50;;;33.50;56.10;;;;;;7522939;26;20232;-81
2024/05/06 09:58:22;;;;;;;1.42;1.42;;;33.80;56.20;;;;;;7497637;26;20233;-82
2024/05/06 10:01:46;;;;;;;4.85;4.45;;;34.60;55.40;;;;;;7510652;26;20228;-82
2024/05/06 10:05:09;;;;;;;1.55;1.50;;;32.80;55.00;;;;;;7525567;26;20228;-81
2024/05/06 10:08:33;;;;;;;3.10;1.98;;;33.10;55.60;;;;;;7524512;26;20231;-82
2024/05/06 10:11:59;;;;;;;1.42;1.33;;;33.70;54.50;;;;;;7520589;26;20236;-82
2024/05/06 10:15:22;;;;;;;1.70;1.48;;;35.20;53.40;;;;;;7522887;26;20939;-81
2024/05/06 10:18:46;;;;;;;1.13;1.13;;;33.40;54.50;;;;;;7506823;26;20232;-83
2024/05/06 10:22:17;;;;;;;1.33;1.25;;;33.50;54.40;;;;;;7506222;26;20578;-81
2024/05/06 10:25:40;;;;;;;1.50;1.40;;;34.70;53.20;;;;;;7508110;26;20228;-81
2024/05/06 10:29:07;;;;;;;2.78;1.42;;;34.30;54.30;;;;;;7525089;26;20309;-83
2024/05/06 10:32:30;;;;;;;1.98;1.88;;;35.10;52.60;;;;;;7527366;26;20232;-80
2024/05/06 10:35:57;;;;;;;2.88;1.80;;;34.20;53.30;;;;;;7529607;26;20228;-82
2024/05/06 10:39:22;;;;;;;1.80;1.70;;;33.20;54.00;;;;;;7529097;26;20228;-81
2024/05/06 10:42:48;;;;;;;2.33;1.67;;;32.10;55.20;;;;;;7519249;26;20229;-82
2024/05/06 10:46:14;;;;;;;2.05;1.95;;;32.80;55.40;;;;;;7530473;26;20222;-80
2024/05/06 10:49:37;;;;;;;2.70;2.50;;;33.60;55.00;;;;;;7530592;26;20228;-81
2024/05/06 10:53:00;;;;;;;3.22;1.95;;;33.40;55.40;;;;;;7530600;26;20279;-82
2024/05/06 10:56:23;;;;;;;2.85;1.83;;;33.30;55.20;;;;;;7530625;26;20233;-80
2024/05/06 10:59:46;;;;;;;2.15;2.05;;;31.10;57.30;;;;;;7511232;26;20268;-82
2024/05/06 11:03:14;;;;;;;2.33;1.90;;;30.80;57.90;;;;;;7526166;26;20224;-82
2024/05/06 11:06:37;;;;;;;2.17;2.08;;;31.00;57.90;;;;;;7519871;26;20279;-83
2024/05/06 11:10:00;;;;;;;2.58;1.92;;;31.30;57.90;;;;;;7510149;26;20552;-81
2024/05/06 11:13:24;;;;;;;2.20;2.10;;;32.00;57.70;;;;;;7517619;26;20241;-84
2024/05/06 11:16:47;;;;;;;2.47;2.20;;;32.00;57.60;;;;;;7516341;26;20599;-83
2024/05/06 11:20:14;;;;;;;2.35;2.20;;;31.60;57.40;;;;;;7530853;26;20274;-83
2024/05/06 11:23:40;;;;;;;2.80;2.33;;;31.60;57.90;;;;;;7529987;26;20692;-83
2024/05/06 11:27:03;;;;;;;2.63;2.40;;;30.60;58.70;;;;;;7530456;26;20236;-83
2024/05/06 11:30:26;;;;;;;2.50;2.30;;;31.70;57.60;;;;;;7530665;26;20228;-81
2024/05/06 11:33:49;;;;;;;2.97;2.33;;;31.20;57.60;;;;;;7520943;26;20224;-83
2024/05/06 11:37:15;;;;;;;2.88;2.50;;;30.90;58.30;;;;;;7528617;26;20563;-82
2024/05/06 11:40:38;;;;;;;4.30;2.83;;;30.50;59.10;;;;;;7511051;26;20711;-81
2024/05/06 11:44:01;;;;;;;3.38;2.80;;;29.40;60.30;;;;;;7521297;26;20228;-81
2024/05/06 11:47:24;;;;;;;3.35;3.08;;;28.70;61.50;;;;;;7529404;26;20278;-82
2024/05/06 11:50:47;;;;;;;3.05;2.85;;;28.60;62.20;;;;;;7529852;26;20267;-82
2024/05/06 11:54:12;;;;;;;3.55;3.25;;;28.50;62.80;;;;;;7529876;26;20278;-80
2024/05/06 11:57:36;;;;;;;3.40;3.10;;;28.20;63.80;;;;;;7529174;26;20232;-81
2024/05/06 12:00:59;;;;;;;4.63;3.78;;;28.60;63.60;;;;;;7529075;26;20789;-83
2024/05/06 12:04:22;;;;;;;3.28;3.08;;;28.50;63.00;;;;;;7527988;26;20336;-81
2024/05/06 12:07:45;;;;;;;4.03;3.70;;;28.70;63.00;;;;;;7522915;26;20268;-80
2024/05/06 12:11:10;;;;;;;3.00;2.80;;;29.30;62.30;;;;;;7524207;26;20562;-81
2024/05/06 12:14:34;;;;;;;3.40;3.13;;;29.40;62.20;;;;;;7529863;26;20707;-80
2024/05/06 12:17:58;;;;;;;5.47;3.08;;;28.60;63.40;;;;;;7526960;26;20274;-81
2024/05/06 12:21:21;;;;;;;6.97;4.15;;;28.80;63.50;;;;;;7531471;26;20332;-81
2024/05/06 12:24:44;;;;;;;3.65;3.42;;;28.90;63.70;;;;;;7523035;26;20801;-81
2024/05/06 12:28:09;;;;;;;3.40;3.10;;;28.10;64.30;;;;;;7530753;26;20229;-83
2024/05/06 12:31:33;;;;;;;3.67;3.38;;;27.80;65.20;;;;;;7528467;26;20574;-81
2024/05/06 12:34:56;;;;;;;3.92;3.53;;;28.10;64.60;;;;;;7526391;26;20272;-81
2024/05/06 12:38:19;;;;;;;3.83;3.63;;;28.10;65.00;;;;;;7524529;26;20228;-80
2024/05/06 12:41:42;;;;;;;3.42;3.20;;;27.80;65.80;;;;;;7528651;26;20322;-81
2024/05/06 12:45:08;;;;;;;17.00;4.53;;;27.30;66.30;;;;;;7515082;26;20313;-81
2024/05/06 12:48:31;;;;;;;4.97;3.78;;;27.30;66.80;;;;;;7504407;26;20289;-81
2024/05/06 12:51:54;;;;;;;3.60;3.30;;;27.70;65.80;;;;;;7521950;26;20228;-81
2024/05/06 12:55:17;;;;;;;4.18;3.78;;;27.80;66.00;;;;;;7517971;26;20231;-81
2024/05/06 12:58:40;;;;;;;3.90;3.60;;;27.70;66.20;;;;;;7528836;26;20364;-81
2024/05/06 13:02:06;;;;;;;4.10;3.80;;;27.60;66.60;;;;;;7507799;26;20279;-80
2024/05/06 13:05:29;;;;;;;3.90;3.63;;;27.60;67.40;;;;;;7528076;26;20323;-82
2024/05/06 13:08:52;;;;;;;3.33;3.20;;;27.40;68.10;;;;;;7520627;26;20271;-82
2024/05/06 13:12:15;;;;;;;4.47;4.10;;;27.30;68.20;;;;;;7527633;26;20232;-82
2024/05/06 13:15:38;;;;;;;4.55;3.45;;;27.80;67.70;;;;;;7527371;26;20596;-80
2024/05/06 13:19:03;;;;;;;4.18;3.58;;;27.80;68.40;;;;;;7512725;26;20229;-81
2024/05/06 13:22:27;;;;;;;13.38;5.60;;;27.80;68.00;;;;;;7511202;26;20324;-81
2024/05/06 13:25:50;;;;;;;4.43;4.13;;;28.50;67.10;;;;;;7527886;26;20228;-80
2024/05/06 13:29:13;;;;;;;3.83;3.45;;;28.30;67.40;;;;;;7525133;26;20232;-81
2024/05/06 13:32:36;;;;;;;5.10;3.90;;;28.60;67.40;;;;;;7496150;26;20369;-80
2024/05/06 13:36:01;;;;;;;4.72;4.40;;;29.20;66.20;;;;;;7514372;26;20328;-82
2024/05/06 13:39:24;;;;;;;4.20;3.95;;;29.20;66.70;;;;;;7524988;26;20278;-81
2024/05/06 13:42:47;;;;;;;4.53;4.13;;;27.90;68.70;;;;;;7527744;26;20283;-80
2024/05/06 13:46:10;;;;;;;4.57;4.18;;;27.30;69.90;;;;;;7530192;26;20228;-82
2024/05/06 13:49:33;;;;;;;4.22;3.92;;;27.80;69.50;;;;;;7530594;26;20232;-81
2024/05/06 13:52:59;;;;;;;4.60;4.35;;;28.20;69.10;;;;;;7528719;26;20224;-82
2024/05/06 13:56:22;;;;;;;4.75;4.25;;;27.90;69.40;;;;;;7511385;26;20234;-80
2024/05/06 13:59:45;;;;;;;4.65;4.22;;;27.80;70.30;;;;;;7524983;26;20230;-81
2024/05/06 14:03:09;;;;;;;3.92;3.72;;;27.80;70.60;;;;;;7527620;26;20243;-82
2024/05/06 14:06:32;;;;;;;4.65;4.35;;;27.40;71.60;;;;;;7522177;26;20689;-81
2024/05/06 14:09:57;;;;;;;5.47;5.18;;;27.60;71.70;;;;;;7525007;26;20272;-81
2024/05/06 14:13:21;;;;;;;4.90;4.50;;;28.60;70.30;;;;;;7527532;26;20344;-82
2024/05/06 14:16:44;;;;;;;4.43;4.03;;;29.00;69.70;;;;;;7511176;26;20249;-81
2024/05/06 14:20:08;;;;;;;4.97;4.50;;;28.40;70.40;;;;;;7520282;26;20275;-83
2024/05/06 14:23:31;;;;;;;5.00;4.57;;;28.00;71.70;;;;;;7509297;26;20233;-81
2024/05/06 14:26:56;;;;;;;4.63;4.32;;;28.70;70.40;;;;;;7503767;26;20233;-81
2024/05/06 14:30:19;;;;;;;5.10;4.70;;;28.20;71.60;;;;;;7523833;26;20232;-81
2024/05/06 14:33:42;;;;;;;4.60;4.30;;;27.50;73.50;;;;;;7517817;26;20245;-79
2024/05/06 14:37:06;;;;;;;6.95;4.53;;;27.20;75.20;;;;;;7507052;26;20267;-81
2024/05/06 14:40:29;;;;;;;4.45;4.15;;;27.40;74.90;;;;;;7528521;26;21030;-81
2024/05/06 14:43:54;;;;;;;4.35;4.00;;;27.60;75.30;;;;;;7525296;26;20280;-80
2024/05/06 14:47:17;;;;;;;4.90;4.32;;;28.00;74.70;;;;;;7522100;26;20274;-81
2024/05/06 14:50:41;;;;;;;5.20;4.70;;;27.60;75.80;;;;;;7513989;26;20233;-83
2024/05/06 14:54:04;;;;;;;4.65;4.35;;;27.90;74.10;;;;;;7525943;26;20228;-81
2024/05/06 14:57:27;;;;;;;5.10;4.65;;;27.80;74.30;;;;;;7526194;26;20332;-82
2024/05/06 15:00:52;;;;;;;4.97;4.57;;;27.10;75.60;;;;;;7525247;26;20232;-80
2024/05/06 15:04:15;;;;;;;4.68;4.45;;;26.50;77.10;;;;;;7519261;26;20281;-80
2024/05/06 15:07:38;;;;;;;4.68;4.18;;;26.20;77.90;;;;;;7498624;26;20739;-81
2024/05/06 15:11:01;;;;;;;5.85;4.10;;;26.20;78.30;;;;;;7515894;26;20267;-81
2024/05/06 15:14:24;;;;;;;5.10;4.80;;;25.90;79.30;;;;;;7525259;26;20233;-81
2024/05/06 15:17:49;;;;;;;7.05;5.22;;;25.60;80.20;;;;;;7529415;26;20248;-80
2024/05/06 15:21:13;;;;;;;5.43;4.95;;;25.60;80.90;;;;;;7519360;26;20244;-81
2024/05/06 15:24:36;;;;;;;7.38;5.10;;;25.50;81.30;;;;;;7524119;26;20240;-80
2024/05/06 15:27:59;;;;;;;6.47;5.18;;;25.40;82.20;;;;;;7529098;26;20281;-78
2024/05/06 15:31:22;;;;;;;5.22;4.82;;;25.50;82.40;;;;;;7531753;26;20232;-81
2024/05/06 15:34:48;;;;;;;5.43;4.97;;;25.80;81.10;;;;;;7531529;26;20226;-80
2024/05/06 15:38:11;;;;;;;5.03;4.65;;;25.90;80.40;;;;;;7530905;26;20312;-81
2024/05/06 15:41:34;;;;;;;5.65;5.05;;;25.70;80.10;;;;;;7530738;26;20229;-79
2024/05/06 15:44:57;;;;;;;5.50;4.97;;;25.40;81.00;;;;;;7530205;26;20309;-80
2024/05/06 15:48:20;;;;;;;6.07;5.47;;;25.30;82.00;;;;;;7526294;26;20607;-79
2024/05/06 15:51:46;;;;;;;5.82;5.22;;;25.20;83.00;;;;;;7530432;26;20228;-79
2024/05/06 15:55:09;;;;;;;5.88;5.38;;;25.30;83.50;;;;;;7529865;26;20232;-82
2024/05/06 15:58:32;;;;;;;8.25;6.32;;;25.30;86.60;;;;;;7526461;26;20275;-80
2024/05/06 16:01:55;;;;;;;10.55;7.78;;;25.00;92.90;;;;;;7528828;26;20233;-79
2024/05/06 16:05:18;;;;;;;8.75;7.90;;;24.00;99.90;;;;;;7530705;26;20274;-80
2024/05/06 16:08:44;;;;;;;5.60;3.97;;;22.90;99.90;;;;;;7530522;26;20275;-77
2024/05/06 16:12:09;;;;;;;5.28;2.70;;;21.30;99.90;;;;;;7529891;26;20275;-80
2024/05/06 16:15:32;;;;;;;7.03;4.32;;;20.10;99.90;;;;;;7527643;26;20236;-80
2024/05/06 16:18:55;;;;;;;6.90;4.45;;;19.50;99.90;;;;;;7532321;26;20228;-80
2024/05/06 16:22:17;;;;;;;6.25;4.68;;;19.10;99.90;;;;;;7530565;26;20635;-80
2024/05/06 16:25:43;;;;;;;4.20;3.22;;;19.10;99.90;;;;;;7525642;26;20271;-79
2024/05/06 16:29:07;;;;;;;2.92;2.75;;;19.30;99.90;;;;;;7519377;26;20232;-79
2024/05/06 16:32:30;;;;;;;5.80;3.72;;;19.40;99.90;;;;;;7512074;26;20244;-80
2024/05/06 16:35:53;;;;;;;3.97;3.67;;;19.40;99.90;;;;;;7518329;26;20224;-79
2024/05/06 16:39:16;;;;;;;3.63;3.33;;;19.10;99.90;;;;;;7530723;26;20741;-81
2024/05/06 16:42:41;;;;;;;3.22;3.00;;;19.10;99.90;;;;;;7529405;26;20228;-82
2024/05/06 16:46:04;;;;;;;3.72;3.53;;;19.40;99.90;;;;;;7513857;26;20599;-82
2024/05/06 16:49:27;;;;;;;4.25;3.85;;;19.80;99.90;;;;;;7529037;26;20826;-82
2024/05/06 16:52:51;;;;;;;4.88;4.50;;;20.20;99.90;;;;;;7509330;26;20298;-78
2024/05/06 16:56:14;;;;;;;3.58;3.38;;;20.30;99.90;;;;;;7516955;26;20286;-80
2024/05/06 16:59:39;;;;;;;4.60;4.20;;;20.20;99.90;;;;;;7515754;26;20570;-82
2024/05/06 17:03:02;;;;;;;4.85;4.43;;;20.50;99.90;;;;;;7514367;26;20325;-81
2024/05/06 17:06:25;;;;;;;4.63;4.22;;;20.80;99.90;;;;;;7515576;26;20240;-81
2024/05/06 17:09:48;;;;;;;4.70;4.30;;;20.70;99.90;;;;;;7530714;26;20232;-79
2024/05/06 17:13:12;;;;;;;6.15;4.53;;;20.70;99.90;;;;;;7530216;26;20282;-82
2024/05/06 17:16:38;;;;;;;14.65;13.25;;;20.80;99.90;;;;;;7529597;26;20229;-80
2024/05/06 17:20:02;;;;;;;6.13;5.63;;;20.80;99.90;;;;;;7509041;26;20229;-82
2024/05/06 17:23:25;;;;;;;8.02;7.22;;;20.90;99.90;;;;;;7519443;26;20237;-82
2024/05/06 17:26:48;;;;;;;6.30;5.80;;;20.80;99.90;;;;;;7529454;26;20236;-81
2024/05/06 17:30:12;;;;;;;6.28;5.60;;;20.80;99.90;;;;;;7519608;26;20233;-80
2024/05/06 17:33:37;;;;;;;5.50;5.10;;;20.70;99.90;;;;;;7521153;26;20276;-79
2024/05/06 17:37:00;;;;;;;5.88;5.32;;;20.60;99.90;;;;;;7528391;26;20236;-81
2024/05/06 17:40:23;;;;;;;6.05;5.53;;;20.70;99.90;;;;;;7525998;26;20278;-79